createdAt,value
2019-02-17T00:03:37.135Z,26.13
2019-02-17T00:06:17.849Z,26.50
2019-02-17T00:08:58.747Z,26.70
2019-02-17T00:11:39.539Z,27.60
2019-02-17T00:14:20.305Z,26.50
2019-02-17T00:17:00.981Z,25.23
2019-02-17T00:19:41.995Z,26.20
2019-02-17T00:22:22.663Z,26.10
2019-02-17T00:25:03.357Z,23.90
2019-02-17T00:27:43.737Z,24.27
2019-02-17T00:30:24.306Z,24.60
2019-02-17T00:33:05.390Z,25.50
2019-02-17T00:35:45.855Z,25.13
2019-02-17T00:38:26.240Z,23.00
2019-02-17T00:41:06.949Z,23.40
2019-02-17T00:43:47.579Z,21.63
2019-02-17T00:46:28.028Z,20.90
2019-02-17T00:49:08.786Z,22.10
2019-02-17T00:54:32.410Z,27.70
2019-02-17T00:57:13.022Z,23.33
2019-02-17T00:59:53.468Z,23.47
2019-02-17T01:02:33.996Z,24.70
2019-02-17T01:05:14.639Z,21.77
2019-02-17T01:07:55.231Z,22.73
2019-02-17T01:10:35.829Z,22.67
2019-02-17T01:13:16.308Z,21.13
2019-02-17T01:15:56.763Z,21.83
2019-02-17T01:18:37.552Z,24.30
2019-02-17T01:21:17.982Z,22.67
2019-02-17T01:23:58.551Z,21.43
2019-02-17T01:26:39.200Z,21.13
2019-02-17T01:29:20.788Z,21.20
2019-02-17T01:32:02.056Z,22.20
2019-02-17T01:34:42.751Z,21.60
2019-02-17T01:37:23.316Z,21.90
2019-02-17T01:40:04.087Z,22.37
2019-02-17T01:42:44.710Z,22.90
2019-02-17T01:45:25.199Z,22.37
2019-02-17T01:48:06.292Z,22.47
2019-02-17T01:50:46.839Z,23.97
2019-02-17T01:56:09.215Z,22.90
2019-02-17T01:58:49.879Z,23.30
2019-02-17T02:01:30.472Z,22.70
2019-02-17T02:04:10.799Z,21.93
2019-02-17T02:06:51.420Z,23.40
2019-02-17T02:09:31.728Z,23.53
2019-02-17T02:12:12.190Z,23.83
2019-02-17T02:14:53.000Z,24.23
2019-02-17T02:20:13.396Z,23.17
2019-02-17T02:22:53.788Z,23.97
2019-02-17T02:25:34.516Z,23.43
2019-02-17T02:28:15.025Z,24.00
2019-02-17T02:30:55.926Z,24.97
2019-02-17T02:33:36.639Z,22.53
2019-02-17T02:36:17.134Z,22.13
2019-02-17T02:38:58.395Z,24.50
2019-02-17T02:41:38.623Z,24.47
2019-02-17T02:44:19.141Z,24.77
2019-02-17T02:46:59.672Z,23.37
2019-02-17T02:49:40.228Z,23.37
2019-02-17T02:52:20.756Z,24.93
2019-02-17T02:55:01.103Z,25.10
2019-02-17T02:57:41.357Z,24.60
2019-02-17T03:00:21.805Z,24.80
2019-02-17T03:03:02.436Z,25.83
2019-02-17T03:08:43.739Z,26.50
2019-02-17T03:11:24.815Z,25.60
2019-02-17T03:14:05.099Z,25.17
2019-02-17T03:16:45.735Z,25.20
2019-02-17T03:19:26.419Z,25.10
2019-02-17T03:22:07.217Z,25.00
2019-02-17T03:24:47.853Z,26.20
2019-02-17T03:27:28.508Z,25.90
2019-02-17T03:30:08.937Z,25.03
2019-02-17T03:32:49.238Z,23.87
2019-02-17T03:35:29.956Z,24.50
2019-02-17T03:38:10.456Z,23.47
2019-02-17T03:40:51.185Z,23.87
2019-02-17T03:43:32.317Z,24.90
2019-02-17T03:46:12.983Z,24.03
2019-02-17T03:48:53.695Z,25.50
2019-02-17T03:51:34.401Z,24.00
2019-02-17T03:54:15.004Z,26.00
2019-02-17T03:56:55.693Z,24.67
2019-02-17T03:59:36.272Z,24.13
2019-02-17T04:02:16.591Z,23.50
2019-02-17T04:04:56.918Z,24.30
2019-02-17T04:07:37.472Z,24.80
2019-02-17T04:10:18.266Z,24.40
2019-02-17T04:12:59.063Z,24.43
2019-02-17T04:15:39.624Z,26.40
2019-02-17T04:18:20.345Z,24.93
2019-02-17T04:21:01.204Z,25.00
2019-02-17T04:23:41.877Z,25.20
2019-02-17T04:26:22.459Z,23.90
2019-02-17T04:29:03.133Z,24.27
2019-02-17T04:31:43.742Z,23.80
2019-02-17T04:34:24.152Z,24.00
2019-02-17T04:37:04.630Z,26.00
2019-02-17T04:39:45.207Z,25.23
2019-02-17T04:42:26.509Z,26.70
2019-02-17T04:45:07.092Z,25.13
2019-02-17T04:47:48.276Z,26.23
2019-02-17T04:50:28.945Z,24.53
2019-02-17T04:55:52.919Z,24.50
2019-02-17T04:58:33.344Z,25.30
2019-02-17T05:01:13.646Z,24.63
2019-02-17T05:03:54.621Z,23.77
2019-02-17T05:06:35.781Z,24.57
2019-02-17T05:09:16.452Z,24.40
2019-02-17T05:11:57.177Z,25.00
2019-02-17T05:14:37.969Z,24.83
2019-02-17T05:17:18.444Z,26.63
2019-02-17T05:19:59.089Z,25.60
2019-02-17T05:22:39.692Z,25.10
2019-02-17T05:25:21.112Z,24.30
2019-02-17T05:30:52.902Z,24.60
2019-02-17T05:33:26.978Z,24.10
2019-02-17T05:36:07.830Z,24.23
2019-02-17T05:38:48.123Z,26.03
2019-02-17T05:41:28.549Z,24.23
2019-02-17T05:44:09.299Z,24.53
2019-02-17T05:49:33.216Z,24.57
2019-02-17T05:52:13.558Z,25.10
2019-02-17T05:54:53.845Z,24.80
2019-02-17T05:57:34.288Z,24.43
2019-02-17T06:00:16.521Z,26.27
2019-02-17T06:02:57.646Z,24.60
2019-02-17T06:05:38.341Z,23.80
2019-02-17T06:08:18.697Z,25.50
2019-02-17T06:10:59.215Z,23.93
2019-02-17T06:13:39.705Z,25.50
2019-02-17T06:16:20.308Z,24.20
2019-02-17T06:19:00.635Z,24.67
2019-02-17T06:21:41.386Z,24.23
2019-02-17T06:24:10.017Z,24.67
2019-02-17T06:29:51.659Z,25.37
2019-02-17T06:32:39.527Z,24.37
2019-02-17T06:35:27.417Z,24.70
2019-02-17T06:38:15.323Z,24.10
2019-02-17T06:41:03.194Z,23.43
2019-02-17T06:43:51.069Z,23.93
2019-02-17T06:49:42.587Z,23.87
2019-02-17T06:52:30.456Z,23.30
2019-02-17T06:55:37.474Z,22.73
2019-02-17T06:58:25.359Z,23.70
2019-02-17T07:01:13.263Z,22.27
2019-02-17T07:04:01.150Z,23.00
2019-02-17T07:07:05.991Z,23.50
2019-02-17T07:09:44.028Z,23.43
2019-02-17T07:12:31.917Z,23.73
2019-02-17T07:15:19.801Z,22.63
2019-02-17T07:18:07.946Z,23.20
2019-02-17T07:20:55.871Z,22.70
2019-02-17T07:23:43.734Z,21.80
2019-02-17T07:26:31.624Z,22.13
2019-02-17T07:29:19.509Z,23.07
2019-02-17T07:32:07.397Z,20.53
2019-02-17T07:34:55.283Z,21.00
2019-02-17T07:37:43.435Z,21.97
2019-02-17T07:40:31.327Z,22.10
2019-02-17T07:43:19.207Z,22.17
2019-02-17T07:46:07.103Z,22.53
2019-02-17T07:48:54.995Z,23.67
2019-02-17T07:51:42.887Z,21.87
2019-02-17T07:54:30.783Z,22.27
2019-02-17T07:57:18.676Z,21.67
2019-02-17T08:00:06.905Z,21.87
2019-02-17T08:02:54.817Z,22.90
2019-02-17T08:05:42.714Z,21.33
2019-02-17T08:08:30.626Z,21.80
2019-02-17T08:11:18.507Z,21.60
2019-02-17T08:14:06.405Z,22.00
2019-02-17T08:16:54.303Z,21.63
2019-02-17T08:19:34.728Z,21.23
2019-02-17T08:22:15.379Z,20.60
2019-02-17T08:24:56.117Z,21.67
2019-02-17T08:27:36.824Z,20.37
2019-02-17T08:30:17.120Z,21.63
2019-02-17T08:32:57.960Z,22.00
2019-02-17T08:35:38.627Z,21.60
2019-02-17T08:38:19.413Z,21.60
2019-02-17T08:41:00.878Z,20.50
2019-02-17T08:43:41.382Z,19.33
2019-02-17T08:46:22.071Z,20.17
2019-02-17T08:49:02.772Z,20.90
2019-02-17T08:51:43.572Z,20.80
2019-02-17T08:54:23.964Z,20.40
2019-02-17T08:57:04.839Z,21.60
2019-02-17T08:59:45.590Z,21.60
2019-02-17T09:02:26.669Z,20.80
2019-02-17T09:05:07.379Z,20.60
2019-02-17T09:07:48.416Z,20.43
2019-02-17T09:10:28.999Z,20.00
2019-02-17T09:13:09.642Z,22.07
2019-02-17T09:15:50.291Z,21.10
2019-02-17T09:18:30.904Z,22.00
2019-02-17T09:21:11.567Z,20.97
2019-02-17T09:23:52.247Z,22.73
2019-02-17T09:26:33.024Z,23.00
2019-02-17T09:29:15.167Z,21.40
2019-02-17T09:31:55.976Z,22.10
2019-02-17T09:37:19.319Z,25.47
2019-02-17T09:39:59.635Z,24.13
2019-02-17T09:42:40.027Z,24.97
2019-02-17T09:45:20.617Z,23.23
2019-02-17T09:48:01.142Z,22.47
2019-02-17T09:50:41.523Z,24.00
2019-02-17T09:53:22.205Z,23.50
2019-02-17T09:58:45.948Z,22.70
2019-02-17T10:01:27.102Z,21.87
2019-02-17T10:04:08.353Z,22.77
2019-02-17T10:06:49.284Z,23.97
2019-02-17T10:09:18.000Z,23.00
2019-02-17T10:12:05.904Z,20.50
2019-02-17T10:14:53.797Z,21.70
2019-02-17T10:17:41.743Z,21.93
2019-02-17T10:20:29.686Z,23.97
2019-02-17T10:23:17.595Z,22.23
2019-02-17T10:26:05.097Z,20.73
2019-02-17T10:28:53.005Z,22.20
2019-02-17T10:31:40.877Z,22.20
2019-02-17T10:34:28.779Z,21.17
2019-02-17T10:37:16.677Z,21.70
2019-02-17T10:40:05.080Z,19.57
2019-02-17T10:42:52.994Z,21.70
2019-02-17T10:45:40.906Z,21.40
2019-02-17T10:48:28.871Z,22.40
2019-02-17T10:51:16.751Z,21.00
2019-02-17T10:53:45.830Z,22.10
2019-02-17T10:56:14.527Z,22.80
2019-02-17T10:58:43.167Z,22.60
2019-02-17T11:01:11.807Z,22.80
2019-02-17T11:03:40.475Z,22.10
2019-02-17T11:06:09.569Z,22.00
2019-02-17T11:08:38.239Z,21.77
2019-02-17T11:11:06.891Z,20.77
2019-02-17T11:13:35.549Z,22.57
2019-02-17T11:16:04.213Z,21.40
2019-02-17T11:18:32.886Z,22.57
2019-02-17T11:21:01.515Z,20.97
2019-02-17T11:23:30.220Z,19.23
2019-02-17T11:25:58.916Z,19.50
2019-02-17T11:28:27.647Z,21.23
2019-02-17T11:30:56.279Z,21.23
2019-02-17T11:33:25.028Z,20.70
2019-02-17T11:35:53.662Z,20.67
2019-02-17T11:38:22.606Z,20.37
2019-02-17T11:40:51.708Z,20.07
2019-02-17T11:43:20.649Z,21.20
2019-02-17T11:45:49.283Z,20.30
2019-02-17T11:48:18.215Z,20.50
2019-02-17T11:50:46.853Z,20.07
2019-02-17T11:53:15.828Z,20.17
2019-02-17T11:55:44.466Z,20.60
2019-02-17T11:58:13.077Z,21.60
2019-02-17T12:00:41.707Z,20.70
2019-02-17T12:03:10.374Z,20.77
2019-02-17T12:05:39.027Z,21.17
2019-02-17T12:08:07.722Z,21.00
2019-02-17T12:10:36.350Z,21.23
2019-02-17T12:13:04.996Z,21.40
2019-02-17T12:15:33.695Z,22.23
2019-02-17T12:18:02.343Z,21.93
2019-02-17T12:20:46.790Z,22.53
2019-02-17T12:23:19.050Z,21.20
2019-02-17T12:26:01.098Z,22.13
2019-02-17T12:28:34.392Z,22.53
2019-02-17T12:31:03.111Z,20.87
2019-02-17T12:33:31.746Z,22.27
2019-02-17T12:36:00.999Z,21.50
2019-02-17T12:38:29.680Z,21.00
2019-02-17T12:40:58.371Z,20.03
2019-02-17T12:43:27.299Z,20.87
2019-02-17T12:45:55.974Z,21.17
2019-02-17T12:48:24.609Z,23.47
2019-02-17T12:50:53.256Z,22.03
2019-02-17T12:53:21.878Z,20.73
2019-02-17T12:55:50.512Z,22.00
2019-02-17T12:58:29.383Z,21.67
2019-02-17T13:00:49.976Z,22.40
2019-02-17T13:03:28.072Z,21.10
2019-02-17T13:05:48.946Z,21.07
2019-02-17T13:08:17.562Z,20.50
2019-02-17T13:10:46.212Z,21.30
2019-02-17T13:13:14.843Z,20.33
2019-02-17T13:15:46.567Z,19.90
2019-02-17T13:18:15.206Z,20.20
2019-02-17T13:20:43.933Z,19.77
2019-02-17T13:23:12.685Z,20.20
2019-02-17T13:25:41.608Z,21.13
2019-02-17T13:28:11.091Z,21.43
2019-02-17T13:30:40.091Z,21.00
2019-02-17T13:33:08.727Z,20.87
2019-02-17T13:35:37.390Z,19.53
2019-02-17T13:38:05.996Z,19.80
2019-02-17T13:40:34.957Z,20.27
2019-02-17T13:43:03.619Z,21.83
2019-02-17T13:45:32.303Z,20.03
2019-02-17T13:48:00.927Z,19.03
2019-02-17T13:50:29.584Z,21.70
2019-02-17T13:52:58.229Z,20.10
2019-02-17T13:55:27.172Z,20.30
2019-02-17T13:57:55.798Z,19.93
2019-02-17T14:00:24.472Z,20.40
2019-02-17T14:02:53.184Z,20.40
2019-02-17T14:05:21.823Z,19.27
2019-02-17T14:07:50.507Z,19.30
2019-02-17T14:10:19.442Z,20.13
2019-02-17T14:12:48.071Z,20.60
2019-02-17T14:15:16.721Z,19.07
2019-02-17T14:17:45.385Z,20.93
2019-02-17T14:20:14.108Z,20.00
2019-02-17T14:22:42.719Z,19.17
2019-02-17T14:25:11.519Z,19.60
2019-02-17T14:27:40.579Z,20.23
2019-02-17T14:30:10.617Z,18.67
2019-02-17T14:32:39.291Z,19.37
2019-02-17T14:35:08.249Z,20.80
2019-02-17T14:37:36.874Z,18.10
2019-02-17T14:40:06.159Z,20.20
2019-02-17T14:42:34.799Z,18.70
2019-02-17T14:45:03.510Z,17.93
2019-02-17T14:47:32.163Z,18.10
2019-02-17T14:50:00.789Z,19.10
2019-02-17T14:52:29.424Z,18.10
2019-02-17T14:54:58.075Z,18.30
2019-02-17T14:57:26.734Z,17.40
2019-02-17T14:59:55.360Z,18.00
2019-02-17T15:02:24.044Z,17.57
2019-02-17T15:04:52.955Z,17.23
2019-02-17T15:07:21.627Z,18.30
2019-02-17T15:09:50.263Z,18.27
2019-02-17T15:12:18.907Z,18.17
2019-02-17T15:14:47.543Z,17.50
2019-02-17T15:17:16.217Z,17.50
2019-02-17T15:19:44.868Z,17.97
2019-02-17T15:22:13.527Z,18.43
2019-02-17T15:24:42.460Z,19.27
2019-02-17T15:27:11.460Z,19.00
2019-02-17T15:29:40.100Z,18.23
2019-02-17T15:32:08.773Z,17.83
2019-02-17T15:34:37.440Z,17.90
2019-02-17T15:37:06.096Z,16.97
2019-02-17T15:39:34.712Z,17.90
2019-02-17T15:42:03.351Z,17.90
2019-02-17T15:44:31.999Z,18.07
2019-02-17T15:47:00.820Z,18.17
2019-02-17T15:49:29.450Z,17.80
2019-02-17T15:51:58.089Z,17.20
2019-02-17T15:54:26.766Z,19.10
2019-02-17T15:56:55.393Z,18.87
2019-02-17T15:59:24.014Z,19.83
2019-02-17T16:01:52.638Z,19.57
2019-02-17T16:04:28.261Z,19.50
2019-02-17T16:06:51.946Z,20.20
2019-02-17T16:09:20.563Z,19.63
2019-02-17T16:11:49.200Z,19.73
2019-02-17T16:14:17.875Z,20.03
2019-02-17T16:16:46.508Z,23.83
2019-02-17T16:19:15.145Z,23.00
2019-02-17T16:21:43.781Z,23.70
2019-02-17T16:24:12.826Z,21.17
2019-02-17T16:26:41.846Z,21.03
2019-02-17T16:29:10.452Z,20.10
2019-02-17T16:31:39.103Z,20.27
2019-02-17T16:34:07.794Z,21.20
2019-02-17T16:36:36.676Z,20.10
2019-02-17T16:39:08.660Z,20.43
2019-02-17T16:41:37.368Z,21.70
2019-02-17T16:44:06.035Z,21.37
2019-02-17T16:46:35.071Z,21.37
2019-02-17T16:49:03.710Z,23.70
2019-02-17T16:51:32.440Z,21.30
2019-02-17T16:54:01.361Z,22.37
2019-02-17T16:56:30.219Z,23.73
2019-02-17T16:58:58.855Z,22.13
2019-02-17T17:01:27.507Z,21.77
2019-02-17T17:03:56.199Z,20.90
2019-02-17T17:06:24.843Z,19.80
2019-02-17T17:08:53.482Z,19.53
2019-02-17T17:11:22.599Z,19.10
2019-02-17T17:13:52.336Z,19.00
2019-02-17T17:16:21.283Z,20.57
2019-02-17T17:18:49.932Z,20.17
2019-02-17T17:21:18.587Z,19.10
2019-02-17T17:23:47.225Z,20.37
2019-02-17T17:26:15.910Z,19.70
2019-02-17T17:28:44.555Z,22.10
2019-02-17T17:31:13.171Z,19.93
2019-02-17T17:33:41.870Z,20.20
2019-02-17T17:36:10.503Z,19.50
2019-02-17T17:38:39.459Z,18.90
2019-02-17T17:41:08.067Z,18.33
2019-02-17T17:43:36.695Z,18.40
2019-02-17T17:46:05.340Z,18.57
2019-02-17T17:48:33.977Z,19.33
2019-02-17T17:51:02.591Z,18.80
2019-02-17T17:53:31.247Z,18.20
2019-02-17T17:55:59.911Z,18.00
2019-02-17T17:58:28.590Z,17.20
2019-02-17T18:00:57.196Z,18.27
2019-02-17T18:03:25.840Z,18.03
2019-02-17T18:05:54.451Z,17.60
2019-02-17T18:08:23.106Z,18.60
2019-02-17T18:10:51.728Z,17.70
2019-02-17T18:13:21.963Z,16.50
2019-02-17T18:15:51.039Z,18.17
2019-02-17T18:18:19.685Z,18.63
2019-02-17T18:20:48.332Z,18.27
2019-02-17T18:23:16.967Z,18.80
2019-02-17T18:25:45.688Z,20.30
2019-02-17T18:28:14.363Z,20.37
2019-02-17T18:30:43.003Z,20.07
2019-02-17T18:33:11.659Z,21.20
2019-02-17T18:35:40.279Z,19.73
2019-02-17T18:38:08.927Z,18.87
2019-02-17T18:40:44.707Z,18.77
2019-02-17T18:43:07.907Z,18.80
2019-02-17T18:45:36.560Z,18.70
2019-02-17T18:48:05.237Z,17.97
2019-02-17T18:50:33.872Z,18.40
2019-02-17T18:53:02.561Z,18.43
2019-02-17T18:55:31.486Z,18.43
2019-02-17T18:58:00.195Z,18.20
2019-02-17T19:00:28.857Z,18.63
2019-02-17T19:02:57.475Z,17.67
2019-02-17T19:05:32.038Z,17.60
2019-02-17T19:07:56.471Z,18.00
2019-02-17T19:10:25.161Z,19.80
2019-02-17T19:12:53.783Z,18.40
2019-02-17T19:15:22.947Z,18.33
2019-02-17T19:17:51.863Z,18.40
2019-02-17T19:20:20.671Z,18.70
2019-02-17T19:22:49.290Z,19.83
2019-02-17T19:25:17.935Z,19.03
2019-02-17T19:27:46.789Z,18.93
2019-02-17T19:30:15.614Z,18.67
2019-02-17T19:32:44.453Z,18.67
2019-02-17T19:35:13.551Z,17.80
2019-02-17T19:37:42.340Z,18.43
2019-02-17T19:40:11.913Z,17.53
2019-02-17T19:42:40.800Z,17.93
2019-02-17T19:45:10.667Z,17.50
2019-02-17T19:47:39.308Z,16.90
2019-02-17T19:50:09.232Z,17.07
2019-02-17T19:52:37.869Z,17.70
2019-02-17T19:55:06.851Z,18.13
2019-02-17T19:57:35.564Z,19.20
2019-02-17T20:00:04.816Z,18.77
2019-02-17T20:02:48.159Z,19.60
2019-02-17T20:05:19.200Z,17.60
2019-02-17T20:07:47.884Z,18.23
2019-02-17T20:10:16.873Z,17.87
2019-02-17T20:12:45.553Z,19.40
2019-02-17T20:15:14.477Z,18.10
2019-02-17T20:17:43.150Z,17.27
2019-02-17T20:20:11.941Z,18.90
2019-02-17T20:22:40.583Z,18.83
2019-02-17T20:25:09.395Z,17.80
2019-02-17T20:27:38.043Z,17.70
2019-02-17T20:30:07.473Z,18.10
2019-02-17T20:32:36.093Z,17.80
2019-02-17T20:35:05.249Z,18.57
2019-02-17T20:37:33.875Z,19.70
2019-02-17T20:40:02.506Z,18.20
2019-02-17T20:42:31.177Z,16.17
2019-02-17T20:44:59.827Z,17.40
2019-02-17T20:47:28.552Z,16.70
2019-02-17T20:49:57.225Z,16.20
2019-02-17T20:52:25.945Z,16.10
2019-02-17T20:54:54.618Z,15.90
2019-02-17T20:57:23.312Z,16.50
2019-02-17T20:59:51.956Z,16.80
2019-02-17T21:02:20.780Z,16.40
2019-02-17T21:04:49.558Z,15.93
2019-02-17T21:07:18.280Z,16.60
2019-02-17T21:09:46.932Z,17.50
2019-02-17T21:12:15.635Z,17.40
2019-02-17T21:14:44.267Z,15.90
2019-02-17T21:17:13.007Z,17.43
2019-02-17T21:19:41.659Z,17.37
2019-02-17T21:22:10.328Z,16.03
2019-02-17T21:24:38.972Z,15.87
2019-02-17T21:27:07.643Z,16.10
2019-02-17T21:29:36.279Z,16.17
2019-02-17T21:32:04.927Z,15.10
2019-02-17T21:34:33.561Z,16.37
2019-02-17T21:37:02.218Z,15.70
2019-02-17T21:39:30.815Z,15.30
2019-02-17T21:41:59.501Z,15.43
2019-02-17T21:44:28.123Z,15.87
2019-02-17T21:46:56.769Z,16.33
2019-02-17T21:49:25.488Z,16.30
2019-02-17T21:51:54.169Z,16.40
2019-02-17T21:54:22.799Z,15.53
2019-02-17T21:56:51.435Z,15.90
2019-02-17T21:59:20.121Z,16.97
2019-02-17T22:01:48.746Z,15.77
2019-02-17T22:04:17.372Z,15.20
2019-02-17T22:06:46.046Z,16.53
2019-02-17T22:09:14.694Z,15.97
2019-02-17T22:11:43.343Z,15.73
2019-02-17T22:14:12.031Z,17.00
2019-02-17T22:16:41.007Z,16.00
2019-02-17T22:19:09.647Z,16.60
2019-02-17T22:21:38.863Z,15.20
2019-02-17T22:24:07.603Z,15.33
2019-02-17T22:26:36.262Z,15.83
2019-02-17T22:29:05.052Z,15.90
2019-02-17T22:31:33.740Z,15.93
2019-02-17T22:34:02.347Z,16.00
2019-02-17T22:36:30.971Z,15.80
2019-02-17T22:38:59.592Z,15.40
2019-02-17T22:41:28.331Z,15.50
2019-02-17T22:43:56.980Z,14.40
2019-02-17T22:46:25.820Z,15.43
2019-02-17T22:48:54.521Z,15.80
2019-02-17T22:51:23.255Z,15.50
2019-02-17T22:53:51.888Z,16.67
2019-02-17T22:56:20.590Z,15.93
2019-02-17T22:58:49.690Z,18.00
2019-02-17T23:01:23.568Z,16.00
2019-02-17T23:03:52.292Z,16.90
2019-02-17T23:06:20.992Z,15.73
2019-02-17T23:08:49.653Z,15.17
2019-02-17T23:11:18.304Z,15.10
2019-02-17T23:13:47.014Z,15.57
2019-02-17T23:16:15.695Z,15.53
2019-02-17T23:18:44.819Z,15.70
2019-02-17T23:21:13.599Z,15.33
2019-02-17T23:23:42.287Z,16.00
2019-02-17T23:26:11.231Z,15.10
2019-02-17T23:28:39.876Z,15.10
2019-02-17T23:31:09.561Z,16.20
2019-02-17T23:33:38.235Z,14.70
2019-02-17T23:36:06.864Z,15.73
2019-02-17T23:38:35.601Z,15.13
2019-02-17T23:41:04.308Z,15.97
2019-02-17T23:43:32.940Z,15.90
2019-02-17T23:46:01.863Z,14.70
2019-02-17T23:48:31.008Z,14.23
2019-02-17T23:50:59.943Z,16.93
2019-02-17T23:53:28.883Z,15.50
2019-02-17T23:55:57.536Z,15.83
2019-02-17T23:58:26.181Z,14.80
